createdAt,value
2023-03-06T00:02:17.537Z,0.52
2023-03-06T00:06:17.649Z,0.51
2023-03-06T00:10:17.736Z,0.52
2023-03-06T00:14:17.858Z,0.53
2023-03-06T00:18:18.007Z,0.52
2023-03-06T00:22:18.116Z,0.51
2023-03-06T00:26:18.190Z,0.52
2023-03-06T00:30:18.328Z,0.51
2023-03-06T00:34:18.478Z,0.52
2023-03-06T00:38:18.511Z,0.52
2023-03-06T00:42:18.646Z,0.51
2023-03-06T00:46:18.794Z,0.52
2023-03-06T00:50:18.925Z,0.52
2023-03-06T00:54:19.001Z,0.52
2023-03-06T00:58:19.118Z,0.52
2023-03-06T01:02:19.289Z,0.51
2023-03-06T01:06:19.336Z,0.52
2023-03-06T01:10:19.435Z,0.52
2023-03-06T01:14:19.550Z,0.50
2023-03-06T01:18:19.670Z,0.52
2023-03-06T01:22:19.825Z,0.51
2023-03-06T01:26:19.931Z,0.52
2023-03-06T01:30:20.093Z,0.53
2023-03-06T01:34:20.205Z,0.52
2023-03-06T01:38:20.336Z,0.50
2023-03-06T01:42:20.476Z,0.52
2023-03-06T01:46:20.659Z,0.51
2023-03-06T01:50:20.768Z,0.52
2023-03-06T01:54:20.906Z,0.53
2023-03-06T01:58:21.014Z,0.52
2023-03-06T02:02:21.189Z,0.53
2023-03-06T02:06:21.266Z,0.52
2023-03-06T02:10:21.380Z,0.52
2023-03-06T02:14:21.537Z,0.52
2023-03-06T02:18:21.663Z,0.51
2023-03-06T02:22:21.817Z,0.52
2023-03-06T02:26:21.913Z,0.53
2023-03-06T02:30:22.047Z,0.52
2023-03-06T02:34:22.236Z,0.52
2023-03-06T02:38:22.350Z,0.52
2023-03-06T02:42:22.536Z,0.52
2023-03-06T02:46:22.688Z,0.53
2023-03-06T02:50:22.870Z,0.53
2023-03-06T02:54:23.045Z,0.51
2023-03-06T02:58:23.219Z,0.52
2023-03-06T03:02:23.411Z,0.52
2023-03-06T03:06:23.638Z,0.52
2023-03-06T03:10:23.749Z,0.51
2023-03-06T03:14:23.900Z,0.52
2023-03-06T03:18:24.139Z,0.52
2023-03-06T03:22:24.305Z,0.53
2023-03-06T03:26:24.522Z,0.51
2023-03-06T03:30:24.673Z,0.52
2023-03-06T03:34:24.890Z,0.52
2023-03-06T03:38:25.065Z,0.53
2023-03-06T03:42:25.296Z,0.51
2023-03-06T03:46:25.561Z,0.53
2023-03-06T03:50:25.769Z,0.52
2023-03-06T03:54:25.938Z,0.51
2023-03-06T03:58:26.152Z,0.51
2023-03-06T04:02:26.362Z,0.52
2023-03-06T04:06:26.566Z,0.52
2023-03-06T04:10:26.780Z,0.51
2023-03-06T04:14:26.975Z,0.52
2023-03-06T04:18:27.229Z,0.52
2023-03-06T04:22:27.356Z,0.52
2023-03-06T04:26:27.571Z,0.51
2023-03-06T04:30:27.817Z,0.52
2023-03-06T04:34:27.991Z,0.50
2023-03-06T04:38:28.193Z,0.51
2023-03-06T04:42:28.409Z,0.51
2023-03-06T04:46:28.630Z,0.52
2023-03-06T04:50:28.846Z,0.51
2023-03-06T04:54:29.063Z,0.52
2023-03-06T04:58:29.267Z,0.51
2023-03-06T05:02:29.518Z,0.51
2023-03-06T05:06:29.670Z,0.52
2023-03-06T05:10:29.648Z,0.51
2023-03-06T05:14:29.635Z,0.52
2023-03-06T05:18:29.592Z,0.52
2023-03-06T05:22:29.504Z,0.50
2023-03-06T05:26:29.503Z,0.51
2023-03-06T05:30:29.439Z,0.51
2023-03-06T05:34:29.426Z,0.52
2023-03-06T05:38:29.379Z,0.51
2023-03-06T05:42:29.332Z,0.51
2023-03-06T05:46:29.301Z,0.52
2023-03-06T05:50:29.272Z,0.53
2023-03-06T05:54:29.507Z,0.53
2023-03-06T05:58:29.644Z,0.55
2023-03-06T06:02:30.043Z,0.56
2023-03-06T06:06:30.110Z,0.57
2023-03-06T06:10:30.270Z,0.58
2023-03-06T06:14:30.457Z,0.60
2023-03-06T06:18:30.635Z,0.58
2023-03-06T06:22:30.799Z,0.60
2023-03-06T06:26:31.003Z,0.59
2023-03-06T06:30:31.183Z,0.59
2023-03-06T06:34:31.292Z,0.60
2023-03-06T06:38:31.450Z,0.64
2023-03-06T06:42:38.913Z,0.66
2023-03-06T06:47:18.262Z,0.69
2023-03-06T06:50:32.565Z,0.74
2023-03-06T06:54:31.565Z,0.95
2023-03-06T06:58:31.565Z,2.53
2023-03-06T07:02:31.588Z,2.91
2023-03-06T07:06:31.407Z,2.85
2023-03-06T07:10:31.570Z,2.83
2023-03-06T07:14:31.577Z,2.76
2023-03-06T07:18:31.338Z,2.95
2023-03-06T07:22:38.706Z,2.90
2023-03-06T07:26:34.664Z,2.91
2023-03-06T07:30:31.578Z,2.98
2023-03-06T07:34:31.185Z,3.06
2023-03-06T07:38:31.128Z,3.09
2023-03-06T07:42:31.125Z,3.11
2023-03-06T07:46:31.659Z,3.05
2023-03-06T07:50:31.113Z,3.11
2023-03-06T07:54:31.007Z,3.06
2023-03-06T07:58:31.041Z,3.00
2023-03-06T08:02:31.073Z,2.98
2023-03-06T08:06:30.910Z,2.89
2023-03-06T08:10:30.896Z,2.82
2023-03-06T08:14:31.106Z,2.77
2023-03-06T08:18:30.795Z,2.75
2023-03-06T08:22:30.767Z,2.66
2023-03-06T08:26:30.707Z,2.71
2023-03-06T08:30:31.083Z,2.60
2023-03-06T08:34:30.851Z,2.61
2023-03-06T08:38:30.944Z,2.58
2023-03-06T08:42:31.007Z,2.38
2023-03-06T08:46:31.085Z,2.38
2023-03-06T08:50:31.127Z,2.40
2023-03-06T08:54:31.105Z,2.53
2023-03-06T08:58:31.005Z,2.60
2023-03-06T09:02:31.248Z,2.65
2023-03-06T09:06:30.969Z,2.72
2023-03-06T09:10:30.969Z,2.82
2023-03-06T09:14:30.902Z,3.00
2023-03-06T09:18:30.861Z,3.13
2023-03-06T09:22:30.824Z,3.15
2023-03-06T09:26:45.036Z,3.26
2023-03-06T09:30:31.793Z,3.39
2023-03-06T09:34:30.736Z,3.43
2023-03-06T09:38:31.131Z,3.65
2023-03-06T09:42:31.180Z,3.69
2023-03-06T09:46:31.233Z,3.60
2023-03-06T09:50:30.609Z,4.75
2023-03-06T09:54:30.612Z,5.54
2023-03-06T09:58:30.625Z,5.68
2023-03-06T10:02:30.629Z,5.87
2023-03-06T10:06:30.513Z,5.62
2023-03-06T10:10:30.460Z,5.50
2023-03-06T10:14:30.393Z,5.34
2023-03-06T10:18:30.648Z,5.06
2023-03-06T10:22:30.348Z,4.96
2023-03-06T10:26:30.763Z,4.69
2023-03-06T10:30:30.251Z,4.49
2023-03-06T10:34:30.668Z,4.36
2023-03-06T10:38:30.660Z,4.22
2023-03-06T10:42:30.218Z,4.06
2023-03-06T10:46:30.252Z,3.54
2023-03-06T10:50:30.158Z,1.66
2023-03-06T10:54:30.198Z,2.06
2023-03-06T10:58:30.190Z,2.11
2023-03-06T11:02:30.680Z,2.11
2023-03-06T11:06:30.530Z,2.04
2023-03-06T11:10:31.165Z,2.11
2023-03-06T11:14:30.678Z,2.15
2023-03-06T11:18:30.728Z,2.23
2023-03-06T11:22:31.171Z,2.41
2023-03-06T11:26:31.152Z,2.68
2023-03-06T11:30:30.735Z,2.66
2023-03-06T11:34:31.170Z,2.67
2023-03-06T11:38:30.669Z,2.82
2023-03-06T11:42:30.667Z,2.68
2023-03-06T11:46:30.615Z,2.64
2023-03-06T11:50:30.649Z,2.67
2023-03-06T11:54:30.525Z,2.68
2023-03-06T11:58:30.498Z,2.75
2023-03-06T12:02:30.439Z,2.81
2023-03-06T12:06:30.428Z,2.79
2023-03-06T12:10:30.447Z,2.78
2023-03-06T12:14:30.583Z,2.78
2023-03-06T12:18:30.703Z,2.79
2023-03-06T12:22:31.338Z,2.80
2023-03-06T12:26:31.202Z,2.84
2023-03-06T12:30:31.189Z,2.97
2023-03-06T12:34:31.206Z,2.88
2023-03-06T12:38:31.293Z,2.96
2023-03-06T12:42:31.713Z,2.82
2023-03-06T12:46:31.520Z,2.65
2023-03-06T12:50:31.692Z,2.50
2023-03-06T12:54:31.764Z,2.36
2023-03-06T12:58:31.930Z,2.28
2023-03-06T13:02:32.104Z,2.14
2023-03-06T13:06:34.148Z,2.02
2023-03-06T13:10:32.219Z,1.97
2023-03-06T13:14:34.093Z,1.87
2023-03-06T13:18:32.101Z,1.78
2023-03-06T13:22:32.230Z,1.73
2023-03-06T13:26:32.861Z,1.67
2023-03-06T13:30:32.452Z,1.58
2023-03-06T13:34:32.592Z,1.49
2023-03-06T13:38:32.754Z,1.48
2023-03-06T13:42:32.922Z,1.41
2023-03-06T13:46:33.156Z,1.38
2023-03-06T13:50:33.272Z,1.36
2023-03-06T13:54:33.459Z,1.32
2023-03-06T13:58:33.639Z,1.27
2023-03-06T14:02:33.829Z,1.23
2023-03-06T14:06:34.029Z,1.18
2023-03-06T14:10:34.159Z,1.16
2023-03-06T14:14:34.330Z,1.14
2023-03-06T14:18:34.524Z,1.11
2023-03-06T14:22:34.724Z,1.08
2023-03-06T14:26:34.923Z,1.03
2023-03-06T14:30:35.757Z,1.05
2023-03-06T14:34:35.315Z,1.01
2023-03-06T14:38:35.240Z,0.97
2023-03-06T14:42:35.205Z,0.98
2023-03-06T14:46:35.272Z,0.96
2023-03-06T14:50:35.180Z,0.93
2023-03-06T14:54:35.106Z,0.92
2023-03-06T14:58:35.100Z,0.91
2023-03-06T15:02:35.076Z,0.89
2023-03-06T15:06:35.273Z,0.87
2023-03-06T15:10:34.974Z,0.86
2023-03-06T15:14:34.981Z,0.84
2023-03-06T15:18:35.255Z,0.83
2023-03-06T15:22:34.941Z,0.81
2023-03-06T15:26:34.907Z,0.80
2023-03-06T15:30:34.869Z,0.80
2023-03-06T15:34:34.856Z,0.79
2023-03-06T15:38:34.792Z,0.78
2023-03-06T15:42:34.787Z,0.76
2023-03-06T15:46:34.765Z,0.75
2023-03-06T15:50:34.710Z,0.75
2023-03-06T15:54:34.658Z,0.75
2023-03-06T15:58:34.692Z,0.72
2023-03-06T16:02:34.618Z,0.72
2023-03-06T16:06:34.555Z,0.71
2023-03-06T16:10:34.543Z,0.69
2023-03-06T16:14:34.493Z,0.66
2023-03-06T16:18:34.457Z,0.66
2023-03-06T16:22:34.438Z,0.66
2023-03-06T16:26:34.389Z,0.63
2023-03-06T16:30:34.356Z,0.64
2023-03-06T16:34:34.317Z,0.62
2023-03-06T16:38:34.275Z,0.63
2023-03-06T16:42:34.221Z,0.61
2023-03-06T16:46:34.247Z,0.60
2023-03-06T16:50:34.194Z,0.58
2023-03-06T16:54:34.198Z,0.58
2023-03-06T16:58:34.358Z,0.58
2023-03-06T17:02:34.531Z,0.59
2023-03-06T17:06:34.748Z,0.57
2023-03-06T17:10:34.966Z,0.57
2023-03-06T17:14:34.956Z,0.56
2023-03-06T17:18:34.874Z,0.55
2023-03-06T17:22:34.839Z,0.54
2023-03-06T17:26:34.797Z,0.54
2023-03-06T17:30:34.780Z,0.55
2023-03-06T17:34:34.758Z,0.54
2023-03-06T17:38:34.711Z,0.53
2023-03-06T17:42:34.675Z,0.53
2023-03-06T17:46:34.694Z,0.53
2023-03-06T17:50:34.617Z,0.51
2023-03-06T17:54:34.559Z,0.51
2023-03-06T17:58:34.596Z,0.51
2023-03-06T18:02:34.616Z,0.51
2023-03-06T18:06:34.608Z,0.51
2023-03-06T18:10:34.549Z,0.51
2023-03-06T18:14:34.546Z,0.51
2023-03-06T18:18:34.536Z,0.52
2023-03-06T18:22:34.587Z,0.51
2023-03-06T18:26:34.519Z,0.51
2023-03-06T18:30:34.556Z,0.50
2023-03-06T18:34:34.540Z,0.52
2023-03-06T18:38:34.511Z,0.51
2023-03-06T18:42:34.498Z,0.51
2023-03-06T18:46:34.499Z,0.50
2023-03-06T18:50:34.505Z,0.50
2023-03-06T18:54:34.581Z,0.51
2023-03-06T18:58:34.470Z,0.53
2023-03-06T19:02:34.553Z,0.51
2023-03-06T19:06:34.561Z,0.51
2023-03-06T19:10:34.585Z,0.52
2023-03-06T19:14:34.653Z,0.51
2023-03-06T19:18:34.751Z,0.50
2023-03-06T19:22:34.713Z,0.50
2023-03-06T19:26:34.773Z,0.51
2023-03-06T19:30:34.808Z,0.51
2023-03-06T19:34:34.929Z,0.51
2023-03-06T19:38:34.986Z,0.53
2023-03-06T19:42:35.092Z,0.52
2023-03-06T19:46:35.110Z,0.51
2023-03-06T19:50:35.210Z,0.52
2023-03-06T19:54:35.305Z,0.51
2023-03-06T19:58:35.339Z,0.52
2023-03-06T20:02:35.428Z,0.50
2023-03-06T20:06:35.551Z,0.51
2023-03-06T20:10:35.641Z,0.52
2023-03-06T20:14:35.769Z,0.52
2023-03-06T20:18:35.781Z,0.52
2023-03-06T20:22:35.896Z,0.51
2023-03-06T20:26:36.049Z,0.51
2023-03-06T20:30:38.336Z,0.51
2023-03-06T20:34:36.229Z,0.52
2023-03-06T20:38:36.355Z,0.52
2023-03-06T20:42:36.443Z,0.51
2023-03-06T20:46:36.610Z,0.52
2023-03-06T20:50:36.693Z,0.52
2023-03-06T20:54:36.836Z,0.51
2023-03-06T20:58:36.955Z,0.53
2023-03-06T21:02:37.121Z,0.52
2023-03-06T21:06:37.260Z,0.52
2023-03-06T21:10:37.418Z,0.53
2023-03-06T21:14:37.564Z,0.52
2023-03-06T21:18:37.733Z,0.50
2023-03-06T21:22:37.883Z,0.51
2023-03-06T21:26:38.039Z,0.52
2023-03-06T21:30:38.193Z,0.52
2023-03-06T21:34:38.375Z,0.52
2023-03-06T21:38:38.565Z,0.52
2023-03-06T21:42:38.720Z,0.51
2023-03-06T21:46:38.822Z,0.51
2023-03-06T21:50:38.989Z,0.52
2023-03-06T21:54:39.148Z,0.51
2023-03-06T21:58:39.339Z,0.52
2023-03-06T22:02:39.894Z,0.51
2023-03-06T22:06:39.640Z,0.52
2023-03-06T22:10:39.771Z,0.52
2023-03-06T22:14:39.923Z,0.51
2023-03-06T22:18:40.070Z,0.52
2023-03-06T22:22:40.201Z,0.51
2023-03-06T22:26:40.339Z,0.51
2023-03-06T22:30:40.527Z,0.51
2023-03-06T22:34:40.648Z,0.51
2023-03-06T22:38:40.839Z,0.52
2023-03-06T22:42:40.944Z,0.51
2023-03-06T22:46:41.172Z,0.51
2023-03-06T22:50:41.354Z,0.52
2023-03-06T22:54:41.505Z,0.51
2023-03-06T22:58:41.689Z,0.50
2023-03-06T23:02:41.858Z,0.50
2023-03-06T23:06:42.083Z,0.52
2023-03-06T23:10:42.247Z,0.52
2023-03-06T23:14:42.423Z,0.51
2023-03-06T23:18:42.533Z,0.51
2023-03-06T23:22:42.676Z,0.51
2023-03-06T23:26:42.893Z,0.50
2023-03-06T23:30:43.055Z,0.51
2023-03-06T23:34:43.265Z,0.51
2023-03-06T23:38:43.394Z,0.51
2023-03-06T23:42:43.642Z,0.52
2023-03-06T23:46:43.850Z,0.51
2023-03-06T23:50:44.020Z,0.51
2023-03-06T23:54:44.264Z,0.51
2023-03-06T23:58:44.494Z,0.52
